sensor_id;sensor_type;location;lat;lon;timestamp;pressure;altitude;pressure_sealevel;temperature;humidity
56671;BME280;42545;50.054;8.306;2023-05-07T00:02:00;99922.94;;;14.27;87.78
56671;BME280;42545;50.054;8.306;2023-05-07T00:04:27;99921.19;;;14.26;87.76
56671;BME280;42545;50.054;8.306;2023-05-07T00:06:54;99919.38;;;14.21;87.76
56671;BME280;42545;50.054;8.306;2023-05-07T00:09:20;99937.09;;;14.22;87.87
56671;BME280;42545;50.054;8.306;2023-05-07T00:11:47;99938.84;;;14.19;88.09
56671;BME280;42545;50.054;8.306;2023-05-07T00:14:14;99928.22;;;14.14;88.20
56671;BME280;42545;50.054;8.306;2023-05-07T00:16:40;99927.34;;;14.11;88.52
56671;BME280;42545;50.054;8.306;2023-05-07T00:19:09;99937.97;;;14.08;88.70
56671;BME280;42545;50.054;8.306;2023-05-07T00:21:35;99930.88;;;14.05;88.94
56671;BME280;42545;50.054;8.306;2023-05-07T00:24:03;99935.31;;;14.04;89.25
56671;BME280;42545;50.054;8.306;2023-05-07T00:26:30;99932.66;;;14.03;89.55
56671;BME280;42545;50.054;8.306;2023-05-07T00:28:57;99930.00;;;14.04;89.46
56671;BME280;42545;50.054;8.306;2023-05-07T00:31:23;99930.91;;;14.08;89.11
56671;BME280;42545;50.054;8.306;2023-05-07T00:33:50;99926.47;;;14.09;89.00
56671;BME280;42545;50.054;8.306;2023-05-07T00:36:18;99923.84;;;14.15;88.71
56671;BME280;42545;50.054;8.306;2023-05-07T00:38:45;99914.09;;;14.15;88.74
56671;BME280;42545;50.054;8.306;2023-05-07T00:41:11;99907.03;;;14.13;88.76
56671;BME280;42545;50.054;8.306;2023-05-07T00:43:38;99907.91;;;14.13;88.72
56671;BME280;42545;50.054;8.306;2023-05-07T00:46:04;99905.25;;;14.12;88.67
56671;BME280;42545;50.054;8.306;2023-05-07T00:48:31;99904.38;;;14.10;88.91
56671;BME280;42545;50.054;8.306;2023-05-07T00:50:58;99906.16;;;14.08;89.04
56671;BME280;42545;50.054;8.306;2023-05-07T00:53:27;99906.13;;;14.04;89.20
56671;BME280;42545;50.054;8.306;2023-05-07T00:55:53;99914.97;;;14.05;89.49
56671;BME280;42545;50.054;8.306;2023-05-07T00:58:21;99906.13;;;14.03;89.62
56671;BME280;42545;50.054;8.306;2023-05-07T01:00:48;99914.97;;;14.03;89.52
56671;BME280;42545;50.054;8.306;2023-05-07T01:03:15;99913.22;;;14.01;89.49
56671;BME280;42545;50.054;8.306;2023-05-07T01:05:42;99908.78;;;13.97;89.50
56671;BME280;42545;50.054;8.306;2023-05-07T01:08:11;99915.00;;;13.93;89.96
56671;BME280;42545;50.054;8.306;2023-05-07T01:10:40;99912.31;;;13.90;90.39
56671;BME280;42545;50.054;8.306;2023-05-07T01:13:08;99912.31;;;13.88;91.08
56671;BME280;42545;50.054;8.306;2023-05-07T01:15:35;99912.31;;;13.85;91.23
56671;BME280;42545;50.054;8.306;2023-05-07T01:18:03;99916.72;;;13.81;91.49
56671;BME280;42545;50.054;8.306;2023-05-07T01:20:30;99922.06;;;13.78;91.59
56671;BME280;42545;50.054;8.306;2023-05-07T01:22:59;99919.38;;;13.75;91.88
56671;BME280;42545;50.054;8.306;2023-05-07T01:25:27;99913.19;;;13.72;92.03
56671;BME280;42545;50.054;8.306;2023-05-07T01:27:54;99916.72;;;13.72;92.16
56671;BME280;42545;50.054;8.306;2023-05-07T01:30:21;99911.41;;;13.71;92.40
56671;BME280;42545;50.054;8.306;2023-05-07T01:32:55;99908.75;;;13.72;92.55
56671;BME280;42545;50.054;8.306;2023-05-07T01:35:25;99903.44;;;13.71;92.71
56671;BME280;42545;50.054;8.306;2023-05-07T01:37:54;99897.28;;;13.70;92.95
56671;BME280;42545;50.054;8.306;2023-05-07T01:40:22;99893.75;;;13.70;92.93
56671;BME280;42545;50.054;8.306;2023-05-07T01:42:49;99893.75;;;13.70;92.99
56671;BME280;42545;50.054;8.306;2023-05-07T01:45:16;99890.22;;;13.68;93.13
56671;BME280;42545;50.054;8.306;2023-05-07T01:47:43;99893.75;;;13.71;93.32
56671;BME280;42545;50.054;8.306;2023-05-07T01:50:10;99882.25;;;13.71;93.12
56671;BME280;42545;50.054;8.306;2023-05-07T01:52:37;99883.16;;;13.73;92.84
56671;BME280;42545;50.054;8.306;2023-05-07T01:55:06;99884.03;;;13.73;92.58
56671;BME280;42545;50.054;8.306;2023-05-07T01:57:34;99891.09;;;13.76;92.28
56671;BME280;42545;50.054;8.306;2023-05-07T02:00:01;99887.56;;;13.77;92.10
56671;BME280;42545;50.054;8.306;2023-05-07T02:02:27;99887.59;;;13.80;91.80
56671;BME280;42545;50.054;8.306;2023-05-07T02:04:54;99890.22;;;13.81;91.62
56671;BME280;42545;50.054;8.306;2023-05-07T02:07:20;99886.69;;;13.84;91.65
56671;BME280;42545;50.054;8.306;2023-05-07T02:09:47;99884.00;;;13.87;91.50
56671;BME280;42545;50.054;8.306;2023-05-07T02:12:13;99886.69;;;13.89;91.41
56671;BME280;42545;50.054;8.306;2023-05-07T02:14:42;99895.50;;;13.91;91.80
56671;BME280;42545;50.054;8.306;2023-05-07T02:17:08;99891.13;;;13.93;91.77
56671;BME280;42545;50.054;8.306;2023-05-07T02:19:35;99894.66;;;13.92;91.73
56671;BME280;42545;50.054;8.306;2023-05-07T02:22:02;99896.41;;;13.90;91.82
56671;BME280;42545;50.054;8.306;2023-05-07T02:24:28;99898.19;;;13.89;91.83
56671;BME280;42545;50.054;8.306;2023-05-07T02:26:55;99892.88;;;13.86;92.21
56671;BME280;42545;50.054;8.306;2023-05-07T02:29:21;99892.00;;;13.82;92.39
56671;BME280;42545;50.054;8.306;2023-05-07T02:31:49;99887.56;;;13.81;92.48
56671;BME280;42545;50.054;8.306;2023-05-07T02:34:18;99890.22;;;13.78;92.95
56671;BME280;42545;50.054;8.306;2023-05-07T02:36:45;99893.75;;;13.76;93.10
56671;BME280;42545;50.054;8.306;2023-05-07T02:39:12;99899.94;;;13.73;93.19
56671;BME280;42545;50.054;8.306;2023-05-07T02:41:41;99900.81;;;13.71;93.32
56671;BME280;42545;50.054;8.306;2023-05-07T02:44:08;99905.22;;;13.70;93.54
56671;BME280;42545;50.054;8.306;2023-05-07T02:46:34;99899.03;;;13.68;93.68
56671;BME280;42545;50.054;8.306;2023-05-07T02:49:02;99899.91;;;13.69;93.70
56671;BME280;42545;50.054;8.306;2023-05-07T02:51:30;99894.63;;;13.69;93.85
56671;BME280;42545;50.054;8.306;2023-05-07T02:53:57;99891.09;;;13.70;93.91
56671;BME280;42545;50.054;8.306;2023-05-07T02:56:25;99891.97;;;13.70;93.92
56671;BME280;42545;50.054;8.306;2023-05-07T02:58:52;99891.97;;;13.70;93.95
56671;BME280;42545;50.054;8.306;2023-05-07T03:01:18;99886.66;;;13.67;93.90
56671;BME280;42545;50.054;8.306;2023-05-07T03:03:46;99889.31;;;13.70;93.99
56671;BME280;42545;50.054;8.306;2023-05-07T03:06:14;99887.56;;;13.72;93.80
56671;BME280;42545;50.054;8.306;2023-05-07T03:08:41;99887.53;;;13.71;93.24
56671;BME280;42545;50.054;8.306;2023-05-07T03:11:07;99891.09;;;13.71;92.65
56671;BME280;42545;50.054;8.306;2023-05-07T03:13:34;99892.84;;;13.72;92.41
56671;BME280;42545;50.054;8.306;2023-05-07T03:16:00;99889.34;;;13.73;92.24
56671;BME280;42545;50.054;8.306;2023-05-07T03:18:27;99895.53;;;13.75;92.02
56671;BME280;42545;50.054;8.306;2023-05-07T03:20:53;99886.66;;;13.79;92.21
56671;BME280;42545;50.054;8.306;2023-05-07T03:23:21;99890.22;;;13.80;92.03
56671;BME280;42545;50.054;8.306;2023-05-07T03:25:48;99888.47;;;13.80;92.22
56671;BME280;42545;50.054;8.306;2023-05-07T03:28:14;99879.63;;;13.80;92.20
56671;BME280;42545;50.054;8.306;2023-05-07T03:30:41;99874.31;;;13.80;92.03
56671;BME280;42545;50.054;8.306;2023-05-07T03:33:08;99876.06;;;13.79;92.38
56671;BME280;42545;50.054;8.306;2023-05-07T03:35:34;99864.56;;;13.77;91.94
56671;BME280;42545;50.054;8.306;2023-05-07T03:38:01;99871.66;;;13.77;91.90
56671;BME280;42545;50.054;8.306;2023-05-07T03:40:29;99864.56;;;13.76;91.12
56671;BME280;42545;50.054;8.306;2023-05-07T03:42:55;99861.91;;;13.76;90.52
56671;BME280;42545;50.054;8.306;2023-05-07T03:45:22;99861.94;;;13.79;89.70
56671;BME280;42545;50.054;8.306;2023-05-07T03:47:49;99872.53;;;13.83;89.07
56671;BME280;42545;50.054;8.306;2023-05-07T03:50:15;99860.16;;;13.87;88.27
56671;BME280;42545;50.054;8.306;2023-05-07T03:52:42;99869.00;;;13.94;87.48
56671;BME280;42545;50.054;8.306;2023-05-07T03:55:09;99872.53;;;13.99;86.55
56671;BME280;42545;50.054;8.306;2023-05-07T03:57:37;99872.53;;;14.05;86.11
56671;BME280;42545;50.054;8.306;2023-05-07T04:00:05;99876.97;;;14.09;85.55
56671;BME280;42545;50.054;8.306;2023-05-07T04:02:33;99873.41;;;14.12;85.41
56671;BME280;42545;50.054;8.306;2023-05-07T04:05:00;99881.38;;;14.13;85.51
56671;BME280;42545;50.054;8.306;2023-05-07T04:07:26;99886.69;;;14.13;85.08
56671;BME280;42545;50.054;8.306;2023-05-07T04:09:53;99893.78;;;14.13;85.15
56671;BME280;42545;50.054;8.306;2023-05-07T04:12:19;99894.66;;;14.15;85.63
56671;BME280;42545;50.054;8.306;2023-05-07T04:14:47;99898.16;;;14.14;86.08
56671;BME280;42545;50.054;8.306;2023-05-07T04:17:14;99899.06;;;14.13;86.72
56671;BME280;42545;50.054;8.306;2023-05-07T04:19:41;99901.72;;;14.13;87.27
56671;BME280;42545;50.054;8.306;2023-05-07T04:22:11;99902.59;;;14.10;86.61
56671;BME280;42545;50.054;8.306;2023-05-07T04:24:38;99905.25;;;14.07;86.15
56671;BME280;42545;50.054;8.306;2023-05-07T04:27:04;99908.78;;;14.06;85.58
56671;BME280;42545;50.054;8.306;2023-05-07T04:29:31;99917.63;;;14.10;85.01
56671;BME280;42545;50.054;8.306;2023-05-07T04:31:59;99913.22;;;14.12;84.67
56671;BME280;42545;50.054;8.306;2023-05-07T04:34:26;99911.44;;;14.15;84.24
56671;BME280;42545;50.054;8.306;2023-05-07T04:36:53;99908.78;;;14.15;84.07
56671;BME280;42545;50.054;8.306;2023-05-07T04:39:19;99913.19;;;14.18;84.40
56671;BME280;42545;50.054;8.306;2023-05-07T04:41:46;99912.31;;;14.20;84.66
56671;BME280;42545;50.054;8.306;2023-05-07T04:44:13;99913.22;;;14.22;84.36
56671;BME280;42545;50.054;8.306;2023-05-07T04:46:40;99917.63;;;14.23;83.91
56671;BME280;42545;50.054;8.306;2023-05-07T04:49:08;99918.53;;;14.26;83.66
56671;BME280;42545;50.054;8.306;2023-05-07T04:51:35;99922.06;;;14.28;83.29
56671;BME280;42545;50.054;8.306;2023-05-07T04:54:01;99919.38;;;14.31;83.10
56671;BME280;42545;50.054;8.306;2023-05-07T04:56:28;99918.50;;;14.33;82.89
56671;BME280;42545;50.054;8.306;2023-05-07T04:58:56;99926.44;;;14.38;82.91
56671;BME280;42545;50.054;8.306;2023-05-07T05:01:23;99927.34;;;14.41;82.35
56671;BME280;42545;50.054;8.306;2023-05-07T05:03:50;99916.72;;;14.40;81.96
56671;BME280;42545;50.054;8.306;2023-05-07T05:06:20;99925.56;;;14.48;81.92
56671;BME280;42545;50.054;8.306;2023-05-07T05:08:47;99927.31;;;14.51;81.66
56671;BME280;42545;50.054;8.306;2023-05-07T05:11:14;99925.53;;;14.53;81.64
56671;BME280;42545;50.054;8.306;2023-05-07T05:13:40;99931.75;;;14.58;80.95
56671;BME280;42545;50.054;8.306;2023-05-07T05:16:07;99926.44;;;14.59;80.92
56671;BME280;42545;50.054;8.306;2023-05-07T05:18:34;99936.16;;;14.64;80.72
56671;BME280;42545;50.054;8.306;2023-05-07T05:21:00;99937.97;;;14.66;80.24
56671;BME280;42545;50.054;8.306;2023-05-07T05:23:28;99935.28;;;14.69;80.24
56671;BME280;42545;50.054;8.306;2023-05-07T05:25:55;99946.78;;;14.73;80.41
56671;BME280;42545;50.054;8.306;2023-05-07T05:28:23;99937.03;;;14.76;80.39
56671;BME280;42545;50.054;8.306;2023-05-07T05:30:49;99941.47;;;14.79;79.87
56671;BME280;42545;50.054;8.306;2023-05-07T05:33:16;99939.69;;;14.81;79.60
56671;BME280;42545;50.054;8.306;2023-05-07T05:35:42;99926.38;;;14.87;79.69
56671;BME280;42545;50.054;8.306;2023-05-07T05:38:09;99940.53;;;14.89;80.03
56671;BME280;42545;50.054;8.306;2023-05-07T05:40:37;99945.84;;;14.97;79.76
56671;BME280;42545;50.054;8.306;2023-05-07T05:43:03;99944.94;;;15.01;79.58
56671;BME280;42545;50.054;8.306;2023-05-07T05:45:30;99953.78;;;15.05;78.85
56671;BME280;42545;50.054;8.306;2023-05-07T05:47:56;99948.47;;;15.06;78.75
56671;BME280;42545;50.054;8.306;2023-05-07T05:50:23;99950.22;;;15.12;78.04
56671;BME280;42545;50.054;8.306;2023-05-07T05:52:50;99949.31;;;15.14;78.03
56671;BME280;42545;50.054;8.306;2023-05-07T05:55:16;99944.00;;;15.19;78.11
56671;BME280;42545;50.054;8.306;2023-05-07T05:57:44;99941.28;;;15.22;78.01
56671;BME280;42545;50.054;8.306;2023-05-07T06:00:12;99938.63;;;15.25;78.42
56671;BME280;42545;50.054;8.306;2023-05-07T06:02:38;99943.06;;;15.26;78.13
56671;BME280;42545;50.054;8.306;2023-05-07T06:05:06;99939.50;;;15.26;77.47
56671;BME280;42545;50.054;8.306;2023-05-07T06:07:32;99937.75;;;15.28;77.66
56671;BME280;42545;50.054;8.306;2023-05-07T06:09:59;99943.94;;;15.28;77.52
56671;BME280;42545;50.054;8.306;2023-05-07T06:12:26;99938.59;;;15.31;77.63
56671;BME280;42545;50.054;8.306;2023-05-07T06:14:54;99934.19;;;15.33;77.44
56671;BME280;42545;50.054;8.306;2023-05-07T06:17:21;99936.78;;;15.38;76.92
56671;BME280;42545;50.054;8.306;2023-05-07T06:19:48;99941.19;;;15.42;76.86
56671;BME280;42545;50.054;8.306;2023-05-07T06:22:14;99932.28;;;15.49;77.20
56671;BME280;42545;50.054;8.306;2023-05-07T06:24:41;99944.69;;;15.55;76.83
56671;BME280;42545;50.054;8.306;2023-05-07T06:27:07;99947.28;;;15.66;76.69
56671;BME280;42545;50.054;8.306;2023-05-07T06:29:34;99946.38;;;15.76;75.82
56671;BME280;42545;50.054;8.306;2023-05-07T06:32:09;99946.31;;;15.87;75.25
56671;BME280;42545;50.054;8.306;2023-05-07T06:34:35;99941.78;;;15.95;74.60
56671;BME280;42545;50.054;8.306;2023-05-07T06:37:02;99937.31;;;16.03;73.85
56671;BME280;42545;50.054;8.306;2023-05-07T06:39:28;99944.34;;;16.12;73.11
56671;BME280;42545;50.054;8.306;2023-05-07T06:41:55;99943.34;;;16.22;73.25
56671;BME280;42545;50.054;8.306;2023-05-07T06:44:21;99945.03;;;16.36;72.55
56671;BME280;42545;50.054;8.306;2023-05-07T06:46:48;99943.16;;;16.45;72.38
56671;BME280;42545;50.054;8.306;2023-05-07T06:49:17;99952.84;;;16.54;72.31
56671;BME280;42545;50.054;8.306;2023-05-07T06:51:44;99943.94;;;16.57;71.30
56671;BME280;42545;50.054;8.306;2023-05-07T06:54:11;99949.16;;;16.66;71.61
56671;BME280;42545;50.054;8.306;2023-05-07T06:56:38;99960.69;;;16.66;71.12
56671;BME280;42545;50.054;8.306;2023-05-07T06:59:04;99952.75;;;16.65;71.19
56671;BME280;42545;50.054;8.306;2023-05-07T07:01:31;99964.28;;;16.64;70.69
56671;BME280;42545;50.054;8.306;2023-05-07T07:03:57;99965.16;;;16.66;71.43
56671;BME280;42545;50.054;8.306;2023-05-07T07:06:25;99960.69;;;16.68;71.62
56671;BME280;42545;50.054;8.306;2023-05-07T07:08:52;99957.16;;;16.64;71.69
56671;BME280;42545;50.054;8.306;2023-05-07T07:11:19;99966.00;;;16.66;71.98
56671;BME280;42545;50.054;8.306;2023-05-07T07:13:45;99966.94;;;16.64;72.26
56671;BME280;42545;50.054;8.306;2023-05-07T07:16:12;99972.28;;;16.64;72.64
56671;BME280;42545;50.054;8.306;2023-05-07T07:18:39;99981.19;;;16.61;71.91
56671;BME280;42545;50.054;8.306;2023-05-07T07:21:06;99973.22;;;16.60;72.74
56671;BME280;42545;50.054;8.306;2023-05-07T07:23:33;99980.25;;;16.64;72.62
56671;BME280;42545;50.054;8.306;2023-05-07T07:26:00;99966.06;;;16.63;72.58
56671;BME280;42545;50.054;8.306;2023-05-07T07:28:26;99968.72;;;16.63;72.01
56671;BME280;42545;50.054;8.306;2023-05-07T07:30:53;99976.72;;;16.65;71.77
56671;BME280;42545;50.054;8.306;2023-05-07T07:33:20;99980.25;;;16.68;72.60
56671;BME280;42545;50.054;8.306;2023-05-07T07:35:46;99980.19;;;16.71;73.17
56671;BME280;42545;50.054;8.306;2023-05-07T07:38:13;99984.63;;;16.74;73.59
56671;BME280;42545;50.054;8.306;2023-05-07T07:40:41;99981.97;;;16.72;72.87
56671;BME280;42545;50.054;8.306;2023-05-07T07:43:09;99978.44;;;16.70;73.05
56671;BME280;42545;50.054;8.306;2023-05-07T07:45:36;99975.78;;;16.67;72.38
56671;BME280;42545;50.054;8.306;2023-05-07T07:48:02;99983.78;;;16.69;73.41
56671;BME280;42545;50.054;8.306;2023-05-07T07:50:29;99981.09;;;16.72;73.69
56671;BME280;42545;50.054;8.306;2023-05-07T07:52:56;99984.63;;;16.72;74.13
56671;BME280;42545;50.054;8.306;2023-05-07T07:55:30;99982.81;;;16.75;74.21
56671;BME280;42545;50.054;8.306;2023-05-07T07:57:58;99980.16;;;16.75;74.55
56671;BME280;42545;50.054;8.306;2023-05-07T08:00:25;99981.91;;;16.77;74.71
56671;BME280;42545;50.054;8.306;2023-05-07T08:02:52;99983.66;;;16.80;74.77
56671;BME280;42545;50.054;8.306;2023-05-07T08:05:18;99985.41;;;16.82;74.20
56671;BME280;42545;50.054;8.306;2023-05-07T08:07:45;99985.41;;;16.85;74.42
56671;BME280;42545;50.054;8.306;2023-05-07T08:10:17;99984.50;;;16.88;74.46
56671;BME280;42545;50.054;8.306;2023-05-07T08:12:46;99984.47;;;16.91;73.50
56671;BME280;42545;50.054;8.306;2023-05-07T08:15:14;99988.84;;;16.97;73.66
56671;BME280;42545;50.054;8.306;2023-05-07T08:17:41;99978.94;;;17.06;74.32
56671;BME280;42545;50.054;8.306;2023-05-07T08:20:08;99978.00;;;17.12;73.65
56671;BME280;42545;50.054;8.306;2023-05-07T08:22:37;99982.44;;;17.13;72.96
56671;BME280;42545;50.054;8.306;2023-05-07T08:25:04;99979.75;;;17.15;73.31
56671;BME280;42545;50.054;8.306;2023-05-07T08:27:31;99978.78;;;17.22;73.56
56671;BME280;42545;50.054;8.306;2023-05-07T08:29:57;99985.81;;;17.31;73.91
56671;BME280;42545;50.054;8.306;2023-05-07T08:32:25;99985.69;;;17.38;74.30
56671;BME280;42545;50.054;8.306;2023-05-07T08:34:52;99984.72;;;17.47;74.21
56671;BME280;42545;50.054;8.306;2023-05-07T08:37:19;99979.25;;;17.56;74.21
56671;BME280;42545;50.054;8.306;2023-05-07T08:39:46;99984.34;;;17.73;74.27
56671;BME280;42545;50.054;8.306;2023-05-07T08:42:16;99987.78;;;17.81;73.29
56671;BME280;42545;50.054;8.306;2023-05-07T08:44:45;99984.19;;;17.87;72.39
56671;BME280;42545;50.054;8.306;2023-05-07T08:47:12;99986.66;;;17.98;71.94
56671;BME280;42545;50.054;8.306;2023-05-07T08:49:40;99986.56;;;18.07;70.83
56671;BME280;42545;50.054;8.306;2023-05-07T08:52:07;99989.84;;;18.23;72.35
56671;BME280;42545;50.054;8.306;2023-05-07T08:54:36;99978.28;;;18.22;69.82
56671;BME280;42545;50.054;8.306;2023-05-07T08:57:03;99987.88;;;18.34;70.66
56671;BME280;42545;50.054;8.306;2023-05-07T08:59:30;99981.69;;;18.32;70.83
56671;BME280;42545;50.054;8.306;2023-05-07T09:01:57;99985.13;;;18.40;69.72
56671;BME280;42545;50.054;8.306;2023-05-07T09:04:23;99987.66;;;18.48;69.40
56671;BME280;42545;50.054;8.306;2023-05-07T09:06:51;99989.22;;;18.60;69.37
56671;BME280;42545;50.054;8.306;2023-05-07T09:09:18;99989.16;;;18.64;68.07
56671;BME280;42545;50.054;8.306;2023-05-07T09:11:45;99989.97;;;18.70;68.10
56671;BME280;42545;50.054;8.306;2023-05-07T09:14:11;99990.69;;;18.81;68.18
56671;BME280;42545;50.054;8.306;2023-05-07T09:16:40;99988.84;;;18.85;67.00
56671;BME280;42545;50.054;8.306;2023-05-07T09:19:11;99989.63;;;18.90;67.97
56671;BME280;42545;50.054;8.306;2023-05-07T09:21:37;99985.09;;;18.93;68.04
56671;BME280;42545;50.054;8.306;2023-05-07T09:24:07;99984.09;;;18.99;68.13
56671;BME280;42545;50.054;8.306;2023-05-07T09:26:34;99983.06;;;19.06;68.61
56671;BME280;42545;50.054;8.306;2023-05-07T09:29:02;99984.78;;;19.10;68.25
56671;BME280;42545;50.054;8.306;2023-05-07T09:31:28;99985.53;;;19.17;69.09
56671;BME280;42545;50.054;8.306;2023-05-07T09:33:57;99980.09;;;19.21;68.34
56671;BME280;42545;50.054;8.306;2023-05-07T09:36:23;99985.41;;;19.23;68.31
56671;BME280;42545;50.054;8.306;2023-05-07T09:38:50;99982.72;;;19.25;67.88
56671;BME280;42545;50.054;8.306;2023-05-07T09:41:19;99985.34;;;19.26;68.43
56671;BME280;42545;50.054;8.306;2023-05-07T09:43:46;99992.38;;;19.32;68.57
56671;BME280;42545;50.054;8.306;2023-05-07T09:46:25;99988.66;;;19.39;68.49
56671;BME280;42545;50.054;8.306;2023-05-07T09:48:57;99997.41;;;19.46;68.22
56671;BME280;42545;50.054;8.306;2023-05-07T09:51:25;99993.03;;;19.43;66.49
56671;BME280;42545;50.054;8.306;2023-05-07T09:53:56;99989.34;;;19.49;67.44
56671;BME280;42545;50.054;8.306;2023-05-07T09:56:27;99986.56;;;19.55;67.07
56671;BME280;42545;50.054;8.306;2023-05-07T09:58:59;99982.03;;;19.57;66.28
56671;BME280;42545;50.054;8.306;2023-05-07T10:01:27;99986.41;;;19.61;66.10
56671;BME280;42545;50.054;8.306;2023-05-07T10:03:55;99977.53;;;19.59;65.93
56671;BME280;42545;50.054;8.306;2023-05-07T10:06:24;99985.47;;;19.62;66.09
56671;BME280;42545;50.054;8.306;2023-05-07T10:08:52;99975.63;;;19.64;65.35
56671;BME280;42545;50.054;8.306;2023-05-07T10:11:21;99978.19;;;19.69;65.20
56671;BME280;42545;50.054;8.306;2023-05-07T10:13:51;99974.47;;;19.77;65.56
56671;BME280;42545;50.054;8.306;2023-05-07T10:16:19;99968.06;;;19.85;64.98
56671;BME280;42545;50.054;8.306;2023-05-07T10:18:46;99979.50;;;19.91;64.91
56671;BME280;42545;50.054;8.306;2023-05-07T10:21:16;99970.28;;;20.05;65.47
56671;BME280;42545;50.054;8.306;2023-05-07T10:23:45;99969.97;;;20.17;64.21
56671;BME280;42545;50.054;8.306;2023-05-07T10:26:13;99978.50;;;20.33;63.97
56671;BME280;42545;50.054;8.306;2023-05-07T10:28:43;99971.03;;;20.46;64.05
56671;BME280;42545;50.054;8.306;2023-05-07T10:31:32;99977.97;;;20.54;63.34
56671;BME280;42545;50.054;8.306;2023-05-07T10:34:07;99969.88;;;20.56;62.47
56671;BME280;42545;50.054;8.306;2023-05-07T10:36:35;99966.50;;;20.48;61.62
56671;BME280;42545;50.054;8.306;2023-05-07T10:39:02;99969.56;;;20.34;61.35
56671;BME280;42545;50.054;8.306;2023-05-07T10:41:29;99973.13;;;20.33;61.97
56671;BME280;42545;50.054;8.306;2023-05-07T10:43:56;99976.72;;;20.33;62.63
56671;BME280;42545;50.054;8.306;2023-05-07T10:46:27;99976.75;;;20.32;62.29
56671;BME280;42545;50.054;8.306;2023-05-07T10:49:10;99966.13;;;20.27;62.09
56671;BME280;42545;50.054;8.306;2023-05-07T10:51:38;99968.63;;;20.35;62.48
56671;BME280;42545;50.054;8.306;2023-05-07T10:54:18;99977.56;;;20.35;62.48
56671;BME280;42545;50.054;8.306;2023-05-07T10:56:45;99973.03;;;20.38;62.26
56671;BME280;42545;50.054;8.306;2023-05-07T10:59:34;99961.44;;;20.37;62.11
56671;BME280;42545;50.054;8.306;2023-05-07T11:02:08;99972.00;;;20.43;62.19
56671;BME280;42545;50.054;8.306;2023-05-07T11:04:36;99966.56;;;20.46;62.04
56671;BME280;42545;50.054;8.306;2023-05-07T11:07:25;99968.25;;;20.50;61.89
56671;BME280;42545;50.054;8.306;2023-05-07T11:09:55;99957.31;;;20.58;62.51
56671;BME280;42545;50.054;8.306;2023-05-07T11:12:51;99958.91;;;20.67;62.90
56671;BME280;42545;50.054;8.306;2023-05-07T11:15:35;99953.41;;;20.71;62.89
56671;BME280;42545;50.054;8.306;2023-05-07T11:18:03;99954.34;;;20.70;61.89
56671;BME280;42545;50.054;8.306;2023-05-07T11:20:48;99952.59;;;20.69;61.22
56671;BME280;42545;50.054;8.306;2023-05-07T11:26:23;99966.81;;;20.71;61.79
56671;BME280;42545;50.054;8.306;2023-05-07T11:28:51;99955.16;;;20.74;61.20
56671;BME280;42545;50.054;8.306;2023-05-07T11:31:21;99954.13;;;20.78;60.79
56671;BME280;42545;50.054;8.306;2023-05-07T11:33:50;99953.16;;;20.81;60.46
56671;BME280;42545;50.054;8.306;2023-05-07T11:36:18;99945.00;;;20.85;60.68
56671;BME280;42545;50.054;8.306;2023-05-07T11:38:45;99949.22;;;20.96;60.44
56671;BME280;42545;50.054;8.306;2023-05-07T11:41:12;99951.81;;;20.97;59.39
56671;BME280;42545;50.054;8.306;2023-05-07T11:43:53;99946.31;;;21.03;60.18
56671;BME280;42545;50.054;8.306;2023-05-07T11:46:20;99946.00;;;21.14;60.32
56671;BME280;42545;50.054;8.306;2023-05-07T11:48:47;99944.94;;;21.20;60.28
56671;BME280;42545;50.054;8.306;2023-05-07T11:51:20;99938.47;;;21.27;60.08
56671;BME280;42545;50.054;8.306;2023-05-07T11:53:49;99945.41;;;21.34;58.47
56671;BME280;42545;50.054;8.306;2023-05-07T11:56:17;99940.88;;;21.36;57.04
56671;BME280;42545;50.054;8.306;2023-05-07T11:58:46;99937.16;;;21.40;57.09
56671;BME280;42545;50.054;8.306;2023-05-07T12:01:14;99938.81;;;21.46;57.26
56671;BME280;42545;50.054;8.306;2023-05-07T12:03:42;99947.41;;;21.57;56.64
56671;BME280;42545;50.054;8.306;2023-05-07T12:06:10;99947.25;;;21.63;56.46
56671;BME280;42545;50.054;8.306;2023-05-07T12:08:40;99944.56;;;21.63;55.17
56671;BME280;42545;50.054;8.306;2023-05-07T12:11:08;99932.75;;;21.69;56.07
56671;BME280;42545;50.054;8.306;2023-05-07T12:13:37;99941.34;;;21.80;56.89
56671;BME280;42545;50.054;8.306;2023-05-07T12:16:05;99935.75;;;21.86;56.56
56671;BME280;42545;50.054;8.306;2023-05-07T12:18:32;99940.19;;;21.89;55.58
56671;BME280;42545;50.054;8.306;2023-05-07T12:20:59;99935.47;;;21.96;56.71
56671;BME280;42545;50.054;8.306;2023-05-07T12:23:26;99939.00;;;21.98;55.64
56671;BME280;42545;50.054;8.306;2023-05-07T12:25:54;99930.22;;;21.93;55.44
56671;BME280;42545;50.054;8.306;2023-05-07T12:28:21;99934.53;;;21.97;55.44
56671;BME280;42545;50.054;8.306;2023-05-07T12:30:48;99930.88;;;21.99;54.79
56671;BME280;42545;50.054;8.306;2023-05-07T12:33:16;99924.53;;;22.02;54.66
56671;BME280;42545;50.054;8.306;2023-05-07T12:35:43;99920.84;;;22.04;54.75
56671;BME280;42545;50.054;8.306;2023-05-07T12:38:11;99928.56;;;22.15;55.03
56671;BME280;42545;50.054;8.306;2023-05-07T12:40:40;99919.41;;;22.21;54.38
56671;BME280;42545;50.054;8.306;2023-05-07T12:43:15;99932.44;;;22.35;54.22
56671;BME280;42545;50.054;8.306;2023-05-07T12:45:43;99932.97;;;22.44;53.95
56671;BME280;42545;50.054;8.306;2023-05-07T12:48:10;99924.81;;;22.48;54.09
56671;BME280;42545;50.054;8.306;2023-05-07T12:50:38;99924.72;;;22.51;54.04
56671;BME280;42545;50.054;8.306;2023-05-07T12:53:10;99916.47;;;22.55;54.28
56671;BME280;42545;50.054;8.306;2023-05-07T12:55:41;99918.16;;;22.58;53.55
56671;BME280;42545;50.054;8.306;2023-05-07T12:58:17;99919.88;;;22.60;53.36
56671;BME280;42545;50.054;8.306;2023-05-07T13:00:47;99917.94;;;22.65;54.20
56671;BME280;42545;50.054;8.306;2023-05-07T13:03:21;99920.47;;;22.69;51.74
56671;BME280;42545;50.054;8.306;2023-05-07T13:05:50;99921.53;;;22.64;51.03
56671;BME280;42545;50.054;8.306;2023-05-07T13:08:24;99914.47;;;22.62;50.51